createdAt,value
2018-05-16T00:00:29.072Z,0.00
2018-05-16T00:01:29.216Z,0.00
2018-05-16T00:02:40.070Z,0.00
2018-05-16T00:03:29.465Z,0.00
2018-05-16T00:04:29.604Z,0.00
2018-05-16T00:05:29.741Z,0.00
2018-05-16T00:06:29.887Z,0.00
2018-05-16T00:07:30.022Z,0.00
2018-05-16T00:08:30.160Z,0.00
2018-05-16T00:09:30.309Z,0.00
2018-05-16T00:10:30.446Z,0.00
2018-05-16T00:11:30.587Z,0.00
2018-05-16T00:12:30.730Z,0.00
2018-05-16T00:13:30.863Z,0.00
2018-05-16T00:14:31.007Z,0.00
2018-05-16T00:15:31.147Z,0.00
2018-05-16T00:16:31.286Z,0.00
2018-05-16T00:17:31.426Z,0.00
2018-05-16T00:18:31.561Z,0.00
2018-05-16T00:19:31.701Z,0.00
2018-05-16T00:20:31.837Z,0.00
2018-05-16T00:21:31.970Z,0.00
2018-05-16T00:22:32.103Z,0.00
2018-05-16T00:23:32.268Z,0.00
2018-05-16T00:24:32.387Z,0.00
2018-05-16T00:25:32.528Z,0.00
2018-05-16T00:26:32.668Z,0.00
2018-05-16T00:27:32.807Z,0.00
2018-05-16T00:28:32.946Z,0.00
2018-05-16T00:29:33.089Z,0.00
2018-05-16T00:30:33.228Z,0.00
2018-05-16T00:31:33.362Z,0.00
2018-05-16T00:32:33.507Z,0.00
2018-05-16T00:33:33.662Z,0.00
2018-05-16T00:34:33.804Z,0.00
2018-05-16T00:35:33.939Z,0.00
2018-05-16T00:36:34.101Z,0.00
2018-05-16T00:37:34.231Z,0.00
2018-05-16T00:38:34.369Z,0.00
2018-05-16T00:39:34.518Z,0.00
2018-05-16T00:40:34.646Z,0.00
2018-05-16T00:41:34.784Z,0.00
2018-05-16T00:42:34.988Z,0.00
2018-05-16T00:43:35.032Z,0.00
2018-05-16T00:44:35.166Z,0.00
2018-05-16T00:45:35.315Z,0.00
2018-05-16T00:46:35.454Z,0.00
2018-05-16T00:47:35.609Z,0.00
2018-05-16T00:48:35.744Z,0.00
2018-05-16T00:49:35.891Z,0.00
2018-05-16T00:50:36.024Z,0.00
2018-05-16T00:51:36.189Z,0.00
2018-05-16T00:52:36.324Z,0.00
2018-05-16T00:53:36.467Z,0.00
2018-05-16T00:54:36.604Z,0.00
2018-05-16T00:55:36.745Z,0.00
2018-05-16T00:56:36.886Z,0.00
2018-05-16T00:57:37.025Z,0.00
2018-05-16T00:58:37.203Z,0.00
2018-05-16T00:59:37.341Z,0.00
2018-05-16T01:00:37.481Z,0.00
2018-05-16T01:01:37.619Z,0.00
2018-05-16T01:02:37.788Z,0.00
2018-05-16T01:03:37.936Z,0.00
2018-05-16T01:04:38.096Z,0.00
2018-05-16T01:05:38.210Z,0.00
2018-05-16T01:06:38.381Z,0.00
2018-05-16T01:07:38.517Z,0.00
2018-05-16T01:08:38.661Z,0.00
2018-05-16T01:09:38.792Z,0.00
2018-05-16T01:10:38.936Z,0.00
2018-05-16T01:11:39.068Z,0.00
2018-05-16T01:12:39.200Z,0.00
2018-05-16T01:13:39.336Z,0.00
2018-05-16T01:14:39.505Z,0.00
2018-05-16T01:15:39.632Z,0.00
2018-05-16T01:16:39.770Z,0.00
2018-05-16T01:17:39.938Z,0.00
2018-05-16T01:18:40.076Z,0.00
2018-05-16T01:19:40.206Z,0.00
2018-05-16T01:20:40.345Z,0.00
2018-05-16T01:21:40.515Z,0.00
2018-05-16T01:22:40.651Z,0.00
2018-05-16T01:23:40.794Z,0.00
2018-05-16T01:24:40.931Z,0.00
2018-05-16T01:25:41.099Z,0.00
2018-05-16T01:26:41.230Z,0.00
2018-05-16T01:27:41.373Z,0.00
2018-05-16T01:28:41.505Z,0.00
2018-05-16T01:29:41.704Z,0.00
2018-05-16T01:30:41.799Z,0.00
2018-05-16T01:31:41.933Z,0.00
2018-05-16T01:32:42.073Z,0.00
2018-05-16T01:33:42.235Z,0.00
2018-05-16T01:34:42.367Z,0.00
2018-05-16T01:35:42.510Z,0.00
2018-05-16T01:36:42.655Z,0.00
2018-05-16T01:37:42.807Z,0.00
2018-05-16T01:38:42.945Z,0.00
2018-05-16T01:39:43.084Z,0.00
2018-05-16T01:40:43.219Z,0.00
2018-05-16T01:41:43.372Z,0.00
2018-05-16T01:42:43.509Z,0.00
2018-05-16T01:43:43.648Z,0.00
2018-05-16T01:44:43.786Z,0.00
2018-05-16T01:45:43.962Z,0.00
2018-05-16T01:46:44.096Z,0.00
2018-05-16T01:47:44.241Z,0.00
2018-05-16T01:48:44.403Z,0.00
2018-05-16T01:49:44.565Z,0.00
2018-05-16T01:50:44.700Z,0.00
2018-05-16T01:51:44.839Z,0.00
2018-05-16T01:52:44.985Z,0.00
2018-05-16T01:53:45.123Z,0.00
2018-05-16T01:54:45.262Z,0.00
2018-05-16T01:55:45.401Z,0.00
2018-05-16T01:56:45.571Z,0.00
2018-05-16T01:57:45.706Z,0.00
2018-05-16T01:58:45.849Z,0.00
2018-05-16T01:59:45.992Z,0.00
2018-05-16T02:00:46.151Z,0.00
2018-05-16T02:01:46.288Z,0.00
2018-05-16T02:02:46.423Z,0.00
2018-05-16T02:03:46.577Z,0.00
2018-05-16T02:04:46.712Z,0.00
2018-05-16T02:05:46.900Z,0.00
2018-05-16T02:06:47.041Z,0.00
2018-05-16T02:07:47.226Z,0.00
2018-05-16T02:08:47.332Z,0.00
2018-05-16T02:09:47.498Z,0.00
2018-05-16T02:10:47.662Z,0.00
2018-05-16T02:11:47.831Z,0.00
2018-05-16T02:12:47.940Z,0.00
2018-05-16T02:13:48.076Z,0.00
2018-05-16T02:14:48.213Z,0.00
2018-05-16T02:15:48.376Z,0.00
2018-05-16T02:16:48.505Z,0.00
2018-05-16T02:17:48.651Z,0.00
2018-05-16T02:18:48.800Z,0.00
2018-05-16T02:19:48.976Z,0.00
2018-05-16T02:20:49.102Z,0.00
2018-05-16T02:21:49.247Z,0.00
2018-05-16T02:22:49.410Z,0.00
2018-05-16T02:23:49.540Z,0.00
2018-05-16T02:24:49.679Z,0.00
2018-05-16T02:25:49.819Z,0.00
2018-05-16T02:26:49.950Z,0.00
2018-05-16T02:27:50.089Z,0.00
2018-05-16T02:28:50.220Z,0.00
2018-05-16T02:29:50.368Z,0.00
2018-05-16T02:30:50.516Z,0.00
2018-05-16T02:31:50.649Z,0.00
2018-05-16T02:32:50.801Z,0.00
2018-05-16T02:33:50.931Z,0.00
2018-05-16T02:34:51.121Z,0.00
2018-05-16T02:35:51.976Z,0.00
2018-05-16T02:36:51.371Z,0.00
2018-05-16T02:37:51.511Z,0.00
2018-05-16T02:38:51.677Z,0.00
2018-05-16T02:39:51.810Z,0.00
2018-05-16T02:40:51.949Z,0.00
2018-05-16T02:41:52.106Z,0.00
2018-05-16T02:42:52.241Z,0.00
2018-05-16T02:43:52.382Z,0.00
2018-05-16T02:44:52.979Z,0.00
2018-05-16T02:45:52.621Z,0.00
2018-05-16T02:46:52.761Z,0.00
2018-05-16T02:47:52.903Z,0.00
2018-05-16T02:48:53.039Z,0.00
2018-05-16T02:49:53.210Z,0.00
2018-05-16T02:50:53.345Z,0.00
2018-05-16T02:51:53.476Z,0.00
2018-05-16T02:52:53.656Z,0.00
2018-05-16T02:53:53.782Z,0.00
2018-05-16T02:54:53.924Z,0.00
2018-05-16T02:55:54.101Z,0.00
2018-05-16T02:56:54.219Z,0.00
2018-05-16T02:57:54.356Z,0.00
2018-05-16T02:58:54.507Z,0.00
2018-05-16T02:59:54.647Z,0.00
2018-05-16T03:00:54.782Z,0.00
2018-05-16T03:01:54.913Z,0.00
2018-05-16T03:02:55.060Z,0.00
2018-05-16T03:03:55.194Z,0.00
2018-05-16T03:04:55.336Z,4.00
2018-05-16T03:05:55.470Z,4.00
2018-05-16T03:06:55.692Z,4.00
2018-05-16T03:07:55.796Z,0.00
2018-05-16T03:08:55.811Z,0.00
2018-05-16T03:09:55.945Z,0.00
2018-05-16T03:10:56.087Z,0.00
2018-05-16T03:11:56.246Z,0.00
2018-05-16T03:12:56.365Z,4.00
2018-05-16T03:13:56.514Z,4.00
2018-05-16T03:14:56.667Z,4.00
2018-05-16T03:15:56.808Z,4.00
2018-05-16T03:16:56.966Z,4.00
2018-05-16T03:17:57.107Z,4.00
2018-05-16T03:18:57.243Z,8.00
2018-05-16T03:19:57.387Z,4.00
2018-05-16T03:20:57.530Z,8.00
2018-05-16T03:21:57.666Z,12.00
2018-05-16T03:22:57.805Z,16.00
2018-05-16T03:23:57.942Z,16.00
2018-05-16T03:24:58.082Z,24.00
2018-05-16T03:25:58.207Z,28.00
2018-05-16T03:26:58.358Z,28.00
2018-05-16T03:27:58.502Z,28.00
2018-05-16T03:28:58.639Z,28.00
2018-05-16T03:29:58.782Z,28.00
2018-05-16T03:30:58.926Z,28.00
2018-05-16T03:31:59.070Z,32.00
2018-05-16T03:32:59.197Z,36.00
2018-05-16T03:33:59.335Z,40.00
2018-05-16T03:34:59.481Z,48.00
2018-05-16T03:35:59.623Z,52.00
2018-05-16T03:36:59.764Z,60.00
2018-05-16T03:37:59.902Z,72.00
2018-05-16T03:39:00.045Z,84.00
2018-05-16T03:40:00.177Z,96.00
2018-05-16T03:41:00.317Z,116.00
2018-05-16T03:42:00.456Z,128.00
2018-05-16T03:43:00.591Z,140.00
2018-05-16T03:44:00.728Z,148.00
2018-05-16T03:45:00.870Z,156.00
2018-05-16T03:46:01.012Z,168.00
2018-05-16T03:47:01.149Z,180.00
2018-05-16T03:48:01.287Z,176.00
2018-05-16T03:49:01.423Z,176.00
2018-05-16T03:50:01.568Z,172.00
2018-05-16T03:51:01.715Z,168.00
2018-05-16T03:52:01.884Z,164.00
2018-05-16T03:53:01.995Z,148.00
2018-05-16T03:54:02.132Z,128.00
2018-05-16T03:55:02.276Z,128.00
2018-05-16T03:56:02.409Z,140.00
2018-05-16T03:57:02.548Z,172.00
2018-05-16T03:58:02.724Z,200.00
2018-05-16T03:59:02.863Z,224.00
2018-05-16T04:00:03.015Z,248.00
2018-05-16T04:01:03.156Z,260.00
2018-05-16T04:02:03.294Z,272.00
2018-05-16T04:03:03.429Z,280.00
2018-05-16T04:04:03.562Z,288.00
2018-05-16T04:05:03.703Z,288.00
2018-05-16T04:06:03.842Z,296.00
2018-05-16T04:07:03.978Z,308.00
2018-05-16T04:08:04.125Z,320.00
2018-05-16T04:09:04.255Z,336.00
2018-05-16T04:10:05.005Z,348.00
2018-05-16T04:11:04.547Z,356.00
2018-05-16T04:12:04.686Z,356.00
2018-05-16T04:13:04.818Z,352.00
2018-05-16T04:14:04.965Z,340.00
2018-05-16T04:15:05.096Z,312.00
2018-05-16T04:16:05.235Z,292.00
2018-05-16T04:17:05.375Z,304.00
2018-05-16T04:18:05.512Z,320.00
2018-05-16T04:19:05.663Z,340.00
2018-05-16T04:20:05.805Z,328.00
2018-05-16T04:21:05.943Z,324.00
2018-05-16T04:22:06.104Z,352.00
2018-05-16T04:23:06.249Z,396.00
2018-05-16T04:24:06.399Z,436.00
2018-05-16T04:25:06.532Z,480.00
2018-05-16T04:26:06.685Z,520.00
2018-05-16T04:27:06.814Z,548.00
2018-05-16T04:28:06.960Z,572.00
2018-05-16T04:29:07.088Z,588.00
2018-05-16T04:30:07.261Z,584.00
2018-05-16T04:31:07.394Z,556.00
2018-05-16T04:32:07.538Z,472.00
2018-05-16T04:33:07.702Z,444.00
2018-05-16T04:34:07.835Z,452.00
2018-05-16T04:35:07.976Z,536.00
2018-05-16T04:36:08.112Z,660.00
2018-05-16T04:37:08.281Z,772.00
2018-05-16T04:38:08.414Z,848.00
2018-05-16T04:39:08.558Z,916.00
2018-05-16T04:40:08.693Z,960.00
2018-05-16T04:41:08.846Z,980.00
2018-05-16T04:42:08.983Z,996.00
2018-05-16T04:43:09.126Z,1020.00
2018-05-16T04:44:09.283Z,1008.00
2018-05-16T04:45:09.418Z,1020.00
2018-05-16T04:46:09.556Z,1040.00
2018-05-16T04:47:09.709Z,1028.00
2018-05-16T04:48:09.870Z,1020.00
2018-05-16T04:49:10.001Z,1028.00
2018-05-16T04:50:10.143Z,1020.00
2018-05-16T04:51:10.282Z,1004.00
2018-05-16T04:52:10.430Z,980.00
2018-05-16T04:53:10.561Z,924.00
2018-05-16T04:54:10.701Z,800.00
2018-05-16T04:55:10.862Z,764.00
2018-05-16T04:56:10.993Z,824.00
2018-05-16T04:57:11.126Z,884.00
2018-05-16T04:58:11.271Z,932.00
2018-05-16T04:59:11.440Z,956.00
2018-05-16T05:00:11.575Z,1004.00
2018-05-16T05:01:11.717Z,1036.00
2018-05-16T05:02:11.856Z,1072.00
2018-05-16T05:03:11.998Z,1104.00
2018-05-16T05:04:12.132Z,1176.00
2018-05-16T05:05:12.272Z,1240.00
2018-05-16T05:06:12.407Z,1260.00
2018-05-16T05:07:12.576Z,1200.00
2018-05-16T05:08:12.716Z,1136.00
2018-05-16T05:09:12.862Z,1088.00
2018-05-16T05:10:13.002Z,1060.00
2018-05-16T05:11:13.159Z,1016.00
2018-05-16T05:12:13.294Z,972.00
2018-05-16T05:13:13.437Z,1024.00
2018-05-16T05:14:13.577Z,1064.00
2018-05-16T05:15:13.739Z,1096.00
2018-05-16T05:16:13.877Z,1228.00
2018-05-16T05:17:14.019Z,1316.00
2018-05-16T05:18:14.268Z,1384.00
2018-05-16T05:19:14.317Z,1424.00
2018-05-16T05:20:14.452Z,1392.00
2018-05-16T05:21:14.601Z,1308.00
2018-05-16T05:22:14.733Z,1252.00
2018-05-16T05:23:14.873Z,1196.00
2018-05-16T05:24:15.019Z,1132.00
2018-05-16T05:25:15.192Z,1128.00
2018-05-16T05:26:15.327Z,1284.00
2018-05-16T05:27:15.479Z,1492.00
2018-05-16T05:28:15.610Z,1648.00
2018-05-16T05:29:15.774Z,1616.00
2018-05-16T05:30:15.932Z,1528.00
2018-05-16T05:31:16.053Z,1468.00
2018-05-16T05:32:16.195Z,1388.00
2018-05-16T05:33:16.356Z,1264.00
2018-05-16T05:34:16.501Z,1092.00
2018-05-16T05:35:16.633Z,908.00
2018-05-16T05:36:16.833Z,756.00
2018-05-16T05:37:16.877Z,652.00
2018-05-16T05:38:17.010Z,640.00
2018-05-16T05:39:17.149Z,660.00
2018-05-16T05:40:17.287Z,744.00
2018-05-16T05:41:17.450Z,792.00
2018-05-16T05:42:17.588Z,932.00
2018-05-16T05:43:17.721Z,928.00
2018-05-16T05:44:17.860Z,1080.00
2018-05-16T05:45:18.006Z,1076.00
2018-05-16T05:46:18.144Z,1172.00
2018-05-16T05:47:18.279Z,1212.00
2018-05-16T05:48:18.416Z,1212.00
2018-05-16T05:49:18.636Z,1328.00
2018-05-16T05:50:18.723Z,1524.00
2018-05-16T05:51:18.865Z,1744.00
2018-05-16T05:52:19.011Z,1996.00
2018-05-16T05:53:19.166Z,2200.00
2018-05-16T05:54:19.295Z,2276.00
2018-05-16T05:55:19.437Z,2196.00
2018-05-16T05:56:19.607Z,1928.00
2018-05-16T05:57:19.745Z,2008.00
2018-05-16T05:58:19.885Z,2136.00
2018-05-16T05:59:20.055Z,2184.00
2018-05-16T06:00:20.191Z,2216.00
2018-05-16T06:01:20.327Z,2224.00
2018-05-16T06:02:20.534Z,2316.00
2018-05-16T06:03:20.621Z,2352.00
2018-05-16T06:04:20.757Z,2228.00
2018-05-16T06:05:20.981Z,2332.00
2018-05-16T06:06:21.147Z,2464.00
2018-05-16T06:07:21.187Z,2548.00
2018-05-16T06:08:21.322Z,2684.00
2018-05-16T06:09:21.486Z,2660.00
2018-05-16T06:10:21.623Z,2680.00
2018-05-16T06:11:21.766Z,2772.00
2018-05-16T06:12:21.909Z,2776.00
2018-05-16T06:13:22.060Z,2860.00
2018-05-16T06:14:22.193Z,3108.00
2018-05-16T06:15:22.336Z,3204.00
2018-05-16T06:16:22.482Z,3256.00
2018-05-16T06:17:22.643Z,3200.00
2018-05-16T06:18:22.787Z,3148.00
2018-05-16T06:19:22.930Z,2988.00
2018-05-16T06:20:23.091Z,2772.00
2018-05-16T06:21:23.219Z,2492.00
2018-05-16T06:22:23.360Z,2160.00
2018-05-16T06:23:23.497Z,2116.00
2018-05-16T06:24:23.658Z,1940.00
2018-05-16T06:25:23.793Z,1948.00
2018-05-16T06:26:23.940Z,2212.00
2018-05-16T06:27:24.254Z,2400.00
2018-05-16T06:28:24.227Z,2624.00
2018-05-16T06:29:24.356Z,2680.00
2018-05-16T06:30:24.496Z,3048.00
2018-05-16T06:31:24.637Z,3412.00
2018-05-16T06:32:24.796Z,3348.00
2018-05-16T06:33:24.925Z,3072.00
2018-05-16T06:34:25.072Z,2848.00
2018-05-16T06:35:25.236Z,2632.00
2018-05-16T06:36:25.372Z,2684.00
2018-05-16T06:37:25.518Z,2608.00
2018-05-16T06:38:25.656Z,2620.00
2018-05-16T06:39:25.808Z,2532.00
2018-05-16T06:40:25.942Z,2772.00
2018-05-16T06:41:26.090Z,2840.00
2018-05-16T06:42:26.228Z,2556.00
2018-05-16T06:43:26.368Z,2404.00
2018-05-16T06:44:26.516Z,2224.00
2018-05-16T06:45:26.654Z,2252.00
2018-05-16T06:46:26.791Z,2440.00
2018-05-16T06:47:26.982Z,2704.00
2018-05-16T06:48:27.119Z,2788.00
2018-05-16T06:49:27.255Z,2768.00
2018-05-16T06:50:27.399Z,2824.00
2018-05-16T06:51:27.536Z,3112.00
2018-05-16T06:52:27.677Z,3084.00
2018-05-16T06:53:27.815Z,3200.00
2018-05-16T06:54:27.951Z,3168.00
2018-05-16T06:55:28.091Z,3000.00
2018-05-16T06:56:28.289Z,2880.00
2018-05-16T06:57:28.387Z,2600.00
2018-05-16T06:58:28.506Z,2424.00
2018-05-16T06:59:28.711Z,2480.00
2018-05-16T07:00:28.745Z,2580.00
2018-05-16T07:01:28.880Z,2560.00
2018-05-16T07:02:29.020Z,2552.00
2018-05-16T07:03:29.156Z,2640.00
2018-05-16T07:04:29.301Z,2852.00
2018-05-16T07:05:29.441Z,3008.00
2018-05-16T07:06:29.579Z,2900.00
2018-05-16T07:07:29.717Z,2876.00
2018-05-16T07:08:29.857Z,2912.00
2018-05-16T07:09:29.993Z,2972.00
2018-05-16T07:10:30.135Z,3156.00
2018-05-16T07:11:30.282Z,3204.00
2018-05-16T07:12:30.425Z,3276.00
2018-05-16T07:13:30.584Z,3156.00
2018-05-16T07:14:30.706Z,3064.00
2018-05-16T07:15:30.839Z,3076.00
2018-05-16T07:16:30.996Z,3128.00
2018-05-16T07:17:31.123Z,3252.00
2018-05-16T07:18:31.255Z,3320.00
2018-05-16T07:19:31.394Z,3388.00
2018-05-16T07:20:31.536Z,3432.00
2018-05-16T07:21:31.672Z,3580.00
2018-05-16T07:22:31.824Z,3832.00
2018-05-16T07:23:31.952Z,3944.00
2018-05-16T07:24:32.094Z,3832.00
2018-05-16T07:25:32.237Z,3860.00
2018-05-16T07:26:32.381Z,4072.00
2018-05-16T07:27:32.517Z,3988.00
2018-05-16T07:28:32.686Z,3864.00
2018-05-16T07:29:32.829Z,3576.00
2018-05-16T07:30:32.974Z,3680.00
2018-05-16T07:31:33.146Z,3204.00
2018-05-16T07:32:33.338Z,2852.00
2018-05-16T07:33:33.416Z,2804.00
2018-05-16T07:34:33.553Z,2964.00
2018-05-16T07:35:33.697Z,3164.00
2018-05-16T07:36:33.834Z,2888.00
2018-05-16T07:37:33.972Z,2664.00
2018-05-16T07:38:34.116Z,2800.00
2018-05-16T07:39:34.255Z,2940.00
2018-05-16T07:40:34.403Z,3244.00
2018-05-16T07:41:34.540Z,2960.00
2018-05-16T07:42:34.677Z,3272.00
2018-05-16T07:43:34.829Z,3488.00
2018-05-16T07:44:34.964Z,3360.00
2018-05-16T07:45:35.105Z,3084.00
2018-05-16T07:46:35.264Z,2736.00
2018-05-16T07:47:35.426Z,2804.00
2018-05-16T07:48:35.563Z,3152.00
2018-05-16T07:49:35.701Z,3060.00
2018-05-16T07:50:35.840Z,3132.00
2018-05-16T07:51:35.987Z,3516.00
2018-05-16T07:52:36.128Z,3480.00
2018-05-16T07:53:36.266Z,3544.00
2018-05-16T07:54:36.486Z,4144.00
2018-05-16T07:55:36.547Z,4572.00
2018-05-16T07:56:36.685Z,4508.00
2018-05-16T07:57:36.827Z,4504.00
2018-05-16T07:58:36.970Z,4440.00
2018-05-16T07:59:37.108Z,4468.00
2018-05-16T08:00:37.244Z,4412.00
2018-05-16T08:01:37.383Z,4556.00
2018-05-16T08:02:37.518Z,4488.00
2018-05-16T08:03:37.660Z,4668.00
2018-05-16T08:04:37.809Z,4928.00
2018-05-16T08:05:37.942Z,4920.00
2018-05-16T08:06:38.081Z,4852.00
2018-05-16T08:07:38.227Z,4680.00
2018-05-16T08:08:38.365Z,4900.00
2018-05-16T08:09:38.512Z,4916.00
2018-05-16T08:10:38.655Z,5000.00
2018-05-16T08:11:38.875Z,5024.00
2018-05-16T08:12:38.995Z,4956.00
2018-05-16T08:13:39.069Z,4736.00
2018-05-16T08:14:39.215Z,4364.00
2018-05-16T08:15:39.354Z,4240.00
2018-05-16T08:16:39.494Z,4224.00
2018-05-16T08:17:39.638Z,4232.00
2018-05-16T08:18:39.776Z,3960.00
2018-05-16T08:19:39.917Z,3896.00
2018-05-16T08:20:40.063Z,4228.00
2018-05-16T08:21:40.207Z,4168.00
2018-05-16T08:22:40.343Z,4120.00
2018-05-16T08:23:40.497Z,4400.00
2018-05-16T08:24:40.698Z,4540.00
2018-05-16T08:25:40.795Z,4648.00
2018-05-16T08:26:40.937Z,4936.00
2018-05-16T08:27:41.079Z,4960.00
2018-05-16T08:28:41.236Z,4480.00
2018-05-16T08:29:41.374Z,4340.00
2018-05-16T08:30:41.516Z,4432.00
2018-05-16T08:31:41.653Z,4864.00
2018-05-16T08:32:41.804Z,4912.00
2018-05-16T08:33:41.937Z,5064.00
2018-05-16T08:34:42.079Z,4756.00
2018-05-16T08:35:42.247Z,4208.00
2018-05-16T08:36:42.451Z,3836.00
2018-05-16T08:37:42.511Z,3944.00
2018-05-16T08:38:42.657Z,3972.00
2018-05-16T08:39:42.821Z,4460.00
2018-05-16T08:40:42.961Z,4044.00
2018-05-16T08:41:43.105Z,3964.00
2018-05-16T08:42:43.249Z,3704.00
2018-05-16T08:43:43.413Z,3600.00
2018-05-16T08:44:43.546Z,3904.00
2018-05-16T08:45:43.684Z,4436.00
2018-05-16T08:46:43.827Z,4428.00
2018-05-16T08:47:43.980Z,4848.00
2018-05-16T08:48:44.125Z,4936.00
2018-05-16T08:49:44.265Z,4840.00
2018-05-16T08:50:44.407Z,4620.00
2018-05-16T08:51:44.659Z,4492.00
2018-05-16T08:52:44.616Z,4488.00
2018-05-16T08:53:44.776Z,4584.00
2018-05-16T08:54:44.911Z,4784.00
2018-05-16T08:55:45.059Z,4680.00
2018-05-16T08:56:45.199Z,4692.00
2018-05-16T08:57:45.349Z,4652.00
2018-05-16T08:58:45.499Z,4760.00
2018-05-16T08:59:45.670Z,4752.00
2018-05-16T09:00:45.806Z,4816.00
2018-05-16T09:01:45.948Z,5132.00
2018-05-16T09:02:46.112Z,5052.00
2018-05-16T09:03:46.248Z,5432.00
2018-05-16T09:04:46.388Z,5520.00
2018-05-16T09:05:46.532Z,5524.00
2018-05-16T09:06:46.771Z,5508.00
2018-05-16T09:07:46.758Z,5380.00
2018-05-16T09:08:46.901Z,5000.00
2018-05-16T09:09:47.031Z,4480.00
2018-05-16T09:10:47.184Z,4748.00
2018-05-16T09:11:47.320Z,4932.00
2018-05-16T09:12:47.466Z,4948.00
2018-05-16T09:13:47.616Z,4908.00
2018-05-16T09:14:47.761Z,4812.00
2018-05-16T09:15:47.903Z,4804.00
2018-05-16T09:16:48.042Z,4804.00
2018-05-16T09:17:48.208Z,4740.00
2018-05-16T09:18:48.344Z,4464.00
2018-05-16T09:19:48.485Z,4608.00
2018-05-16T09:20:48.633Z,4552.00
2018-05-16T09:21:48.774Z,4480.00
2018-05-16T09:22:48.908Z,4472.00
2018-05-16T09:23:49.051Z,4516.00
2018-05-16T09:24:49.222Z,4704.00
2018-05-16T09:25:49.342Z,4876.00
2018-05-16T09:26:49.482Z,4940.00
2018-05-16T09:27:49.626Z,4976.00
2018-05-16T09:28:49.791Z,5016.00
2018-05-16T09:29:49.933Z,5072.00
2018-05-16T09:30:50.072Z,5164.00
2018-05-16T09:31:50.235Z,5084.00
2018-05-16T09:32:50.393Z,5284.00
2018-05-16T09:33:50.517Z,5280.00
2018-05-16T09:34:50.662Z,5448.00
2018-05-16T09:35:50.863Z,5412.00
2018-05-16T09:36:50.977Z,4968.00
2018-05-16T09:37:51.113Z,5136.00
2018-05-16T09:38:51.250Z,5256.00
2018-05-16T09:39:51.389Z,5380.00
2018-05-16T09:40:51.521Z,5448.00
2018-05-16T09:41:51.666Z,5452.00
2018-05-16T09:42:51.828Z,5424.00
2018-05-16T09:43:51.969Z,5624.00
2018-05-16T09:44:52.111Z,5640.00
2018-05-16T09:45:52.315Z,5528.00
2018-05-16T09:46:52.423Z,5476.00
2018-05-16T09:47:52.559Z,5520.00
2018-05-16T09:48:52.734Z,5424.00
2018-05-16T09:49:52.868Z,5508.00
2018-05-16T09:50:53.013Z,5612.00
2018-05-16T09:51:53.146Z,5740.00
2018-05-16T09:52:53.288Z,5824.00
2018-05-16T09:53:53.436Z,5832.00
2018-05-16T09:54:53.608Z,5924.00
2018-05-16T09:55:53.747Z,5984.00
2018-05-16T09:56:53.894Z,6000.00
2018-05-16T09:57:54.039Z,6136.00
2018-05-16T09:58:54.205Z,6184.00
2018-05-16T09:59:54.315Z,6212.00
2018-05-16T10:00:54.458Z,5856.00
2018-05-16T10:01:54.601Z,5708.00
2018-05-16T10:02:54.794Z,5720.00
2018-05-16T10:03:54.879Z,5852.00
2018-05-16T10:04:55.014Z,6116.00
2018-05-16T10:05:55.161Z,6320.00
2018-05-16T10:06:55.311Z,6148.00
2018-05-16T10:07:55.448Z,6440.00
2018-05-16T10:08:55.591Z,6340.00
2018-05-16T10:09:55.757Z,6188.00
2018-05-16T10:10:55.881Z,6180.00
2018-05-16T10:11:56.021Z,6036.00
2018-05-16T10:12:56.165Z,6068.00
2018-05-16T10:13:56.326Z,6076.00
2018-05-16T10:14:56.460Z,6124.00
2018-05-16T10:15:56.604Z,6264.00
2018-05-16T10:16:56.758Z,6412.00
2018-05-16T10:17:56.916Z,6452.00
2018-05-16T10:18:57.057Z,6380.00
2018-05-16T10:19:57.195Z,6424.00
2018-05-16T10:20:57.370Z,6152.00
2018-05-16T10:21:57.513Z,6372.00
2018-05-16T10:22:58.080Z,6536.00
2018-05-16T10:23:57.816Z,6304.00
2018-05-16T10:24:57.944Z,6292.00
2018-05-16T10:25:58.537Z,6608.00
2018-05-16T10:26:58.208Z,6780.00
2018-05-16T10:27:59.571Z,6736.00
2018-05-16T10:28:58.498Z,6864.00
2018-05-16T10:29:58.628Z,6628.00
2018-05-16T10:30:58.782Z,6684.00
2018-05-16T10:31:58.921Z,6752.00
2018-05-16T10:32:59.066Z,6568.00
2018-05-16T10:33:59.217Z,6916.00
2018-05-16T10:34:59.361Z,7364.00
2018-05-16T10:35:59.502Z,7528.00
2018-05-16T10:37:00.776Z,7688.00
2018-05-16T10:37:59.772Z,7456.00
2018-05-16T10:38:59.918Z,7536.00
2018-05-16T10:40:00.057Z,7800.00
2018-05-16T10:41:00.221Z,7784.00
2018-05-16T10:42:00.368Z,7936.00
2018-05-16T10:43:00.538Z,7752.00
2018-05-16T10:44:00.680Z,8040.00
2018-05-16T10:45:00.827Z,7900.00
2018-05-16T10:46:00.987Z,7800.00
2018-05-16T10:47:01.119Z,7708.00
2018-05-16T10:48:01.268Z,7060.00
2018-05-16T10:49:01.414Z,6748.00
2018-05-16T10:50:01.555Z,6772.00
2018-05-16T10:51:01.698Z,6344.00
2018-05-16T10:52:01.838Z,6080.00
2018-05-16T10:53:01.976Z,6140.00
2018-05-16T10:54:02.141Z,5692.00
2018-05-16T10:55:02.286Z,5572.00
2018-05-16T10:56:02.428Z,5720.00
2018-05-16T10:57:02.571Z,6444.00
2018-05-16T10:58:03.623Z,6500.00
2018-05-16T10:59:02.794Z,7100.00
2018-05-16T11:00:02.936Z,6728.00
2018-05-16T11:01:03.077Z,6812.00
2018-05-16T11:02:03.223Z,6712.00
2018-05-16T11:03:03.370Z,6392.00
2018-05-16T11:04:03.513Z,5784.00
2018-05-16T11:05:03.664Z,5176.00
2018-05-16T11:06:03.799Z,4728.00
2018-05-16T11:07:03.943Z,4216.00
2018-05-16T11:08:04.083Z,3744.00
2018-05-16T11:09:04.233Z,3464.00
2018-05-16T11:10:04.382Z,3372.00
2018-05-16T11:11:04.531Z,3388.00
2018-05-16T11:12:04.679Z,3368.00
2018-05-16T11:13:04.816Z,3224.00
2018-05-16T11:14:04.955Z,3040.00
2018-05-16T11:15:05.098Z,2868.00
2018-05-16T11:16:05.252Z,2368.00
2018-05-16T11:17:05.396Z,2708.00
2018-05-16T11:18:05.540Z,2876.00
2018-05-16T11:19:05.676Z,3088.00
2018-05-16T11:20:05.822Z,3264.00
2018-05-16T11:21:05.953Z,3284.00
2018-05-16T11:22:06.093Z,3296.00
2018-05-16T11:23:06.236Z,3284.00
2018-05-16T11:24:06.385Z,3192.00
2018-05-16T11:25:06.543Z,3192.00
2018-05-16T11:26:06.679Z,3188.00
2018-05-16T11:27:06.823Z,3196.00
2018-05-16T11:28:06.966Z,3192.00
2018-05-16T11:29:07.129Z,3112.00
2018-05-16T11:30:07.273Z,2876.00
2018-05-16T11:31:07.417Z,2492.00
2018-05-16T11:32:07.565Z,2164.00
2018-05-16T11:33:07.714Z,1984.00
2018-05-16T11:34:07.853Z,1908.00
2018-05-16T11:35:08.009Z,1828.00
2018-05-16T11:36:08.151Z,1920.00
2018-05-16T11:37:08.342Z,1964.00
2018-05-16T11:38:08.451Z,2012.00
2018-05-16T11:39:08.591Z,2176.00
2018-05-16T11:40:08.731Z,2380.00
2018-05-16T11:41:08.908Z,2536.00
2018-05-16T11:42:09.037Z,2644.00
2018-05-16T11:43:09.176Z,2712.00
2018-05-16T11:44:09.317Z,2808.00
2018-05-16T11:45:09.465Z,2932.00
2018-05-16T11:46:09.603Z,2988.00
2018-05-16T11:47:09.746Z,3032.00
2018-05-16T11:48:09.896Z,3060.00
2018-05-16T11:49:10.033Z,3096.00
2018-05-16T11:50:10.177Z,3156.00
2018-05-16T11:51:10.321Z,3328.00
2018-05-16T11:52:10.489Z,3544.00
2018-05-16T11:53:10.676Z,3624.00
2018-05-16T11:54:10.770Z,3776.00
2018-05-16T11:55:10.934Z,3928.00
2018-05-16T11:56:11.091Z,3920.00
2018-05-16T11:57:11.213Z,3800.00
2018-05-16T11:58:11.360Z,3704.00
2018-05-16T11:59:11.561Z,3760.00
2018-05-16T12:00:11.672Z,3836.00
2018-05-16T12:01:11.813Z,3908.00
2018-05-16T12:02:11.954Z,4008.00
2018-05-16T12:03:12.123Z,4012.00
2018-05-16T12:04:12.261Z,4056.00
2018-05-16T12:05:12.430Z,4204.00
2018-05-16T12:06:12.543Z,4440.00
2018-05-16T12:07:12.697Z,3740.00
2018-05-16T12:08:12.842Z,5168.00
2018-05-16T12:09:13.041Z,5436.00
2018-05-16T12:10:13.167Z,5780.00
2018-05-16T12:11:13.295Z,5764.00
2018-05-16T12:12:13.441Z,5140.00
2018-05-16T12:13:13.598Z,4724.00
2018-05-16T12:14:13.732Z,4784.00
2018-05-16T12:15:13.872Z,4940.00
2018-05-16T12:16:14.019Z,5176.00
2018-05-16T12:17:14.189Z,5580.00
2018-05-16T12:18:14.332Z,5756.00
2018-05-16T12:19:14.473Z,5584.00
2018-05-16T12:20:14.614Z,5512.00
2018-05-16T12:21:14.783Z,5324.00
2018-05-16T12:22:14.916Z,5312.00
2018-05-16T12:23:15.063Z,5396.00
2018-05-16T12:24:15.226Z,6068.00
2018-05-16T12:25:15.366Z,6028.00
2018-05-16T12:26:15.509Z,5552.00
2018-05-16T12:27:15.652Z,4996.00
2018-05-16T12:28:15.801Z,4336.00
2018-05-16T12:29:16.000Z,4012.00